createdAt,value
2017-08-26T00:00:48.544Z,17.90
2017-08-26T00:03:16.065Z,17.80
2017-08-26T00:05:43.584Z,17.80
2017-08-26T00:08:11.104Z,17.80
2017-08-26T00:10:38.603Z,17.80
2017-08-26T00:13:06.088Z,17.70
2017-08-26T00:15:33.606Z,17.70
2017-08-26T00:18:01.100Z,17.70
2017-08-26T00:20:28.619Z,17.70
2017-08-26T00:22:56.108Z,17.70
2017-08-26T00:25:23.597Z,17.70
2017-08-26T00:27:51.105Z,17.70
2017-08-26T00:30:18.596Z,17.70
2017-08-26T00:32:46.131Z,17.70
2017-08-26T00:35:13.616Z,17.70
2017-08-26T00:37:41.109Z,17.70
2017-08-26T00:40:08.627Z,17.70
2017-08-26T00:42:36.112Z,17.70
2017-08-26T00:45:03.672Z,17.70
2017-08-26T00:47:31.152Z,17.70
2017-08-26T00:49:58.637Z,17.70
2017-08-26T00:52:26.165Z,17.70
2017-08-26T00:54:53.803Z,17.70
2017-08-26T00:57:21.291Z,17.70
2017-08-26T00:59:48.828Z,17.60
2017-08-26T01:02:16.314Z,17.60
2017-08-26T01:04:45.032Z,17.60
2017-08-26T01:10:07.497Z,17.60
2017-08-26T01:12:35.020Z,17.60
2017-08-26T01:15:02.528Z,17.60
2017-08-26T01:17:30.047Z,17.60
2017-08-26T01:19:57.534Z,17.60
2017-08-26T01:22:25.048Z,17.50
2017-08-26T01:24:52.535Z,17.50
2017-08-26T01:27:20.066Z,17.50
2017-08-26T01:29:47.598Z,17.50
2017-08-26T01:32:15.099Z,17.50
2017-08-26T01:34:42.590Z,17.50
2017-08-26T01:37:10.113Z,17.40
2017-08-26T01:39:37.606Z,17.40
2017-08-26T01:42:05.106Z,17.40
2017-08-26T01:44:32.620Z,17.40
2017-08-26T01:47:00.107Z,17.30
2017-08-26T01:49:27.619Z,17.40
2017-08-26T01:51:55.155Z,17.30
2017-08-26T01:54:22.649Z,17.30
2017-08-26T01:56:50.139Z,17.30
2017-08-26T01:59:17.671Z,17.30
2017-08-26T02:01:45.155Z,17.30
2017-08-26T02:04:12.635Z,17.30
2017-08-26T02:06:40.152Z,17.30
2017-08-26T02:09:07.640Z,17.30
2017-08-26T02:11:35.168Z,17.30
2017-08-26T02:14:02.702Z,17.20
2017-08-26T02:16:30.187Z,17.20
2017-08-26T02:18:57.679Z,17.20
2017-08-26T02:21:25.222Z,17.20
2017-08-26T02:23:52.709Z,17.20
2017-08-26T02:26:20.200Z,17.20
2017-08-26T02:28:47.724Z,17.20
2017-08-26T02:31:15.211Z,17.20
2017-08-26T02:33:42.732Z,17.20
2017-08-26T02:36:10.215Z,17.10
2017-08-26T02:38:37.736Z,17.10
2017-08-26T02:41:05.232Z,17.10
2017-08-26T02:43:32.751Z,17.10
2017-08-26T02:46:00.271Z,17.10
2017-08-26T02:48:27.796Z,17.10
2017-08-26T02:50:55.280Z,17.10
2017-08-26T02:53:22.777Z,17.10
2017-08-26T02:55:50.297Z,17.10
2017-08-26T02:58:17.815Z,17.10
2017-08-26T03:00:45.312Z,17.10
2017-08-26T03:03:12.794Z,17.10
2017-08-26T03:05:40.306Z,17.10
2017-08-26T03:08:07.845Z,17.00
2017-08-26T03:10:35.318Z,17.00
2017-08-26T03:13:03.757Z,17.00
2017-08-26T03:15:31.276Z,17.00
2017-08-26T03:17:58.760Z,17.00
2017-08-26T03:20:26.289Z,17.00
2017-08-26T03:22:53.774Z,17.00
2017-08-26T03:25:21.269Z,17.00
2017-08-26T03:27:48.802Z,17.00
2017-08-26T03:30:16.288Z,17.00
2017-08-26T03:32:43.798Z,17.00
2017-08-26T03:35:11.285Z,17.00
2017-08-26T03:37:47.748Z,16.90
2017-08-26T03:40:15.233Z,17.00
2017-08-26T03:42:42.751Z,17.00
2017-08-26T03:45:10.244Z,16.90
2017-08-26T03:47:37.788Z,17.00
2017-08-26T03:50:05.314Z,17.00
2017-08-26T03:52:32.802Z,16.90
2017-08-26T03:55:00.367Z,16.90
2017-08-26T03:57:27.868Z,17.00
2017-08-26T03:59:55.357Z,16.90
2017-08-26T04:02:22.868Z,16.90
2017-08-26T04:04:50.357Z,16.90
2017-08-26T04:07:17.876Z,16.90
2017-08-26T04:09:45.388Z,16.90
2017-08-26T04:12:12.875Z,16.90
2017-08-26T04:14:40.401Z,16.90
2017-08-26T04:17:07.944Z,16.90
2017-08-26T04:19:35.428Z,16.90
2017-08-26T04:22:02.911Z,16.90
2017-08-26T04:24:30.432Z,16.90
2017-08-26T04:26:57.951Z,16.90
2017-08-26T04:29:25.513Z,16.90
2017-08-26T04:31:53.006Z,16.90
2017-08-26T04:34:20.536Z,16.90
2017-08-26T04:36:48.028Z,17.00
2017-08-26T04:39:15.517Z,17.00
2017-08-26T04:41:43.037Z,17.00
2017-08-26T04:44:10.535Z,17.00
2017-08-26T04:46:38.048Z,17.10
2017-08-26T04:49:05.532Z,17.10
2017-08-26T04:51:33.053Z,17.10
2017-08-26T04:54:00.540Z,17.20
2017-08-26T04:56:28.026Z,17.20
2017-08-26T04:58:55.556Z,17.20
2017-08-26T05:01:23.046Z,17.20
2017-08-26T05:03:50.536Z,17.30
2017-08-26T05:06:18.055Z,17.30
2017-08-26T05:08:45.544Z,17.30
2017-08-26T05:11:13.028Z,17.30
2017-08-26T05:13:40.555Z,17.30
2017-08-26T05:16:08.044Z,17.40
2017-08-26T05:18:35.527Z,17.40
2017-08-26T05:21:03.056Z,17.40
2017-08-26T05:23:30.557Z,17.40
2017-08-26T05:25:58.044Z,17.40
2017-08-26T05:28:25.561Z,17.40
2017-08-26T05:30:53.043Z,17.50
2017-08-26T05:33:20.792Z,17.50
2017-08-26T05:35:48.277Z,17.50
2017-08-26T05:38:15.791Z,17.50
2017-08-26T05:40:43.318Z,17.50
2017-08-26T05:43:10.804Z,17.60
2017-08-26T05:45:38.287Z,17.60
2017-08-26T05:48:05.809Z,17.60
2017-08-26T05:50:33.348Z,17.70
2017-08-26T05:53:00.832Z,17.70
2017-08-26T05:55:28.328Z,17.70
2017-08-26T05:57:55.859Z,17.80
2017-08-26T06:00:23.352Z,17.80
2017-08-26T06:02:50.849Z,17.80
2017-08-26T06:05:18.385Z,17.90
2017-08-26T06:07:45.895Z,17.90
2017-08-26T06:10:13.384Z,18.00
2017-08-26T06:12:40.919Z,18.00
2017-08-26T06:15:08.404Z,18.00
2017-08-26T06:17:35.900Z,18.00
2017-08-26T06:20:03.423Z,18.00
2017-08-26T06:22:30.956Z,18.10
2017-08-26T06:24:58.448Z,18.10
2017-08-26T06:27:25.935Z,18.10
2017-08-26T06:29:53.455Z,18.10
2017-08-26T06:32:20.972Z,18.20
2017-08-26T06:34:48.509Z,18.20
2017-08-26T06:37:15.996Z,18.20
2017-08-26T06:39:43.491Z,18.20
2017-08-26T06:42:11.007Z,18.30
2017-08-26T06:44:38.492Z,18.40
2017-08-26T06:47:06.031Z,18.40
2017-08-26T06:49:33.516Z,18.50
2017-08-26T06:52:01.004Z,18.50
2017-08-26T06:54:28.523Z,18.60
2017-08-26T06:56:56.017Z,18.60
2017-08-26T06:59:23.544Z,18.70
2017-08-26T07:01:51.026Z,18.80
2017-08-26T07:04:18.511Z,19.00
2017-08-26T07:06:46.031Z,19.10
2017-08-26T07:09:13.553Z,19.10
2017-08-26T07:11:41.042Z,19.20
2017-08-26T07:14:08.528Z,19.30
2017-08-26T07:16:36.047Z,19.30
2017-08-26T07:19:03.533Z,19.40
2017-08-26T07:21:31.055Z,19.50
2017-08-26T07:23:58.551Z,19.50
2017-08-26T07:26:26.074Z,19.50
2017-08-26T07:28:53.577Z,19.60
2017-08-26T07:31:21.069Z,19.60
2017-08-26T07:33:48.588Z,19.60
2017-08-26T07:36:16.076Z,19.60
2017-08-26T07:38:43.600Z,19.70
2017-08-26T07:41:11.160Z,19.70
2017-08-26T07:43:38.695Z,19.80
2017-08-26T07:46:06.179Z,19.80
2017-08-26T07:48:33.669Z,19.90
2017-08-26T07:51:01.180Z,20.00
2017-08-26T07:53:28.668Z,20.10
2017-08-26T07:55:56.200Z,20.10
2017-08-26T07:58:23.687Z,20.20
2017-08-26T08:00:51.203Z,20.20
2017-08-26T08:03:18.735Z,20.30
2017-08-26T08:05:46.225Z,20.30
2017-08-26T08:08:13.716Z,20.40
2017-08-26T08:13:15.092Z,20.50
2017-08-26T08:15:42.616Z,20.50
2017-08-26T08:18:10.103Z,20.50
2017-08-26T08:20:37.629Z,20.60
2017-08-26T08:23:05.111Z,20.70
2017-08-26T08:25:32.603Z,20.70
2017-08-26T08:28:00.136Z,20.80
2017-08-26T08:30:27.623Z,20.80
2017-08-26T08:32:55.111Z,20.90
2017-08-26T08:35:22.628Z,21.00
2017-08-26T08:37:50.111Z,21.00
2017-08-26T08:40:17.628Z,21.10
2017-08-26T08:42:45.116Z,21.10
2017-08-26T08:45:12.652Z,21.10
2017-08-26T08:47:40.140Z,21.10
2017-08-26T08:50:07.636Z,21.20
2017-08-26T08:52:35.164Z,21.20
2017-08-26T08:55:02.657Z,21.30
2017-08-26T08:57:30.149Z,21.40
2017-08-26T08:59:57.678Z,21.50
2017-08-26T09:02:25.169Z,21.50
2017-08-26T09:04:52.680Z,21.60
2017-08-26T09:07:20.167Z,21.70
2017-08-26T09:09:47.691Z,21.70
2017-08-26T09:12:15.179Z,21.70
2017-08-26T09:14:42.668Z,21.80
2017-08-26T09:17:10.196Z,21.80
2017-08-26T09:19:37.764Z,21.80
2017-08-26T09:22:05.247Z,21.80
2017-08-26T09:24:32.731Z,21.80
2017-08-26T09:27:00.256Z,21.80
2017-08-26T09:29:27.745Z,21.90
2017-08-26T09:31:55.267Z,21.90
2017-08-26T09:34:22.753Z,22.00
2017-08-26T09:36:50.247Z,22.00
2017-08-26T09:39:17.763Z,22.10
2017-08-26T09:41:45.292Z,22.10
2017-08-26T09:44:12.776Z,22.10
2017-08-26T09:46:40.275Z,22.20
2017-08-26T09:49:07.784Z,22.30
2017-08-26T09:51:35.300Z,22.40
2017-08-26T09:54:02.831Z,22.40
2017-08-26T09:56:30.324Z,22.40
2017-08-26T09:58:57.817Z,22.50
2017-08-26T10:01:25.352Z,22.50
2017-08-26T10:03:52.858Z,22.60
2017-08-26T10:06:20.346Z,22.60
2017-08-26T10:08:47.860Z,22.70
2017-08-26T10:11:15.382Z,22.70
2017-08-26T10:13:42.896Z,22.80
2017-08-26T10:16:10.420Z,22.80
2017-08-26T10:18:37.911Z,22.90
2017-08-26T10:21:05.431Z,22.90
2017-08-26T10:23:32.926Z,23.00
2017-08-26T10:26:00.465Z,23.00
2017-08-26T10:28:27.957Z,23.00
2017-08-26T10:30:55.447Z,23.00
2017-08-26T10:33:22.981Z,23.10
2017-08-26T10:35:50.475Z,23.20
2017-08-26T10:38:17.989Z,23.20
2017-08-26T10:40:45.510Z,23.20
2017-08-26T10:43:13.033Z,23.20
2017-08-26T10:45:40.534Z,23.30
2017-08-26T10:48:08.098Z,23.30
2017-08-26T10:50:35.811Z,23.40
2017-08-26T10:53:03.291Z,23.40
2017-08-26T10:55:30.829Z,23.50
2017-08-26T10:57:58.311Z,23.50
2017-08-26T11:00:25.804Z,23.50
2017-08-26T11:02:53.316Z,23.60
2017-08-26T11:05:20.803Z,23.60
2017-08-26T11:07:48.372Z,23.70
2017-08-26T11:10:15.967Z,23.70
2017-08-26T11:12:43.507Z,23.80
2017-08-26T11:15:10.988Z,23.80
2017-08-26T11:17:38.527Z,23.80
2017-08-26T11:20:06.045Z,23.80
2017-08-26T11:22:33.578Z,23.90
2017-08-26T11:25:01.062Z,23.90
2017-08-26T11:27:28.701Z,24.00
2017-08-26T11:29:56.219Z,24.10
2017-08-26T11:32:23.757Z,24.10
2017-08-26T11:34:51.245Z,24.10
2017-08-26T11:37:18.759Z,24.20
2017-08-26T11:39:46.264Z,24.20
2017-08-26T11:42:13.808Z,24.30
2017-08-26T11:44:41.284Z,24.30
2017-08-26T11:47:08.791Z,24.30
2017-08-26T11:49:36.280Z,24.40
2017-08-26T11:52:03.812Z,24.50
2017-08-26T11:54:31.302Z,24.50
2017-08-26T11:56:58.803Z,24.60
2017-08-26T11:59:26.321Z,24.60
2017-08-26T12:01:53.839Z,24.60
2017-08-26T12:04:21.325Z,24.60
2017-08-26T12:06:48.865Z,24.60
2017-08-26T12:09:16.370Z,24.70
2017-08-26T12:11:43.864Z,24.70
2017-08-26T12:14:11.563Z,24.80
2017-08-26T12:16:39.089Z,24.80
2017-08-26T12:19:06.577Z,24.80
2017-08-26T12:21:34.108Z,24.90
2017-08-26T12:24:01.614Z,25.00
2017-08-26T12:26:29.218Z,25.00
2017-08-26T12:28:56.737Z,25.10
2017-08-26T12:31:24.248Z,25.10
2017-08-26T12:33:51.758Z,25.10
2017-08-26T12:36:19.280Z,25.20
2017-08-26T12:38:46.780Z,25.20
2017-08-26T12:41:22.097Z,25.20
2017-08-26T12:44:01.636Z,25.30
2017-08-26T12:46:31.167Z,25.30
2017-08-26T12:49:01.270Z,25.40
2017-08-26T12:51:32.897Z,25.50
2017-08-26T12:54:12.043Z,25.50
2017-08-26T12:56:39.661Z,25.50
2017-08-26T12:59:07.187Z,25.60
2017-08-26T13:01:34.700Z,25.60
2017-08-26T13:04:02.204Z,25.60
2017-08-26T13:06:29.697Z,25.70
2017-08-26T13:08:57.219Z,25.70
2017-08-26T13:11:24.705Z,25.70
2017-08-26T13:13:52.254Z,25.80
2017-08-26T13:16:19.771Z,25.90
2017-08-26T13:18:47.257Z,25.90
2017-08-26T13:21:14.787Z,25.90
2017-08-26T13:23:42.289Z,26.00
2017-08-26T13:26:09.820Z,26.00
2017-08-26T13:28:37.308Z,26.10
2017-08-26T13:31:04.800Z,26.10
2017-08-26T13:33:32.327Z,26.10
2017-08-26T13:35:59.824Z,26.10
2017-08-26T13:38:27.347Z,26.20
2017-08-26T13:40:54.876Z,26.20
2017-08-26T13:43:22.363Z,26.20
2017-08-26T13:45:49.849Z,26.30
2017-08-26T13:48:17.381Z,26.30
2017-08-26T13:50:44.873Z,26.40
2017-08-26T13:53:12.368Z,26.40
2017-08-26T13:55:39.898Z,26.40
2017-08-26T13:58:07.382Z,26.40
2017-08-26T14:00:34.867Z,26.40
2017-08-26T14:03:02.392Z,26.50
2017-08-26T14:05:29.880Z,26.50
2017-08-26T14:07:57.370Z,26.50
2017-08-26T14:10:24.909Z,26.60
2017-08-26T14:12:52.399Z,26.60
2017-08-26T14:15:19.892Z,26.70
2017-08-26T14:17:47.413Z,26.80
2017-08-26T14:20:14.955Z,26.90
2017-08-26T14:22:42.454Z,26.90
2017-08-26T14:25:09.949Z,27.00
2017-08-26T14:27:37.468Z,27.10
2017-08-26T14:30:05.220Z,27.20
2017-08-26T14:32:32.721Z,27.30
2017-08-26T14:35:00.208Z,27.40
2017-08-26T14:37:27.768Z,27.60
2017-08-26T14:39:55.254Z,27.80
2017-08-26T14:42:22.767Z,27.90
2017-08-26T14:44:50.317Z,28.10
2017-08-26T14:47:17.884Z,28.20
2017-08-26T14:49:45.372Z,28.40
2017-08-26T14:52:12.919Z,28.60
2017-08-26T14:54:40.407Z,28.70
2017-08-26T14:57:07.911Z,28.90
2017-08-26T14:59:35.438Z,29.10
2017-08-26T15:02:02.932Z,29.30
2017-08-26T15:04:30.453Z,29.50
2017-08-26T15:06:57.951Z,29.60
2017-08-26T15:09:25.508Z,29.70
2017-08-26T15:11:53.011Z,29.90
2017-08-26T15:14:20.495Z,30.00
2017-08-26T15:16:48.056Z,30.20
2017-08-26T15:19:15.575Z,30.30
2017-08-26T15:21:43.057Z,30.40
2017-08-26T15:24:10.625Z,30.60
2017-08-26T15:26:38.106Z,30.70
2017-08-26T15:29:05.595Z,30.90
2017-08-26T15:31:33.127Z,31.10
2017-08-26T15:34:00.613Z,31.30
2017-08-26T15:36:28.108Z,31.50
2017-08-26T15:38:55.615Z,31.90
2017-08-26T15:41:23.104Z,32.30
2017-08-26T15:43:50.640Z,32.80
2017-08-26T15:46:18.184Z,33.40
2017-08-26T15:48:45.694Z,34.00
2017-08-26T15:51:13.183Z,34.60
2017-08-26T15:53:40.701Z,35.20
2017-08-26T15:56:08.261Z,35.70
2017-08-26T15:58:35.759Z,36.20
2017-08-26T16:01:03.253Z,36.70
2017-08-26T16:03:30.795Z,37.10
2017-08-26T16:05:58.293Z,37.50
2017-08-26T16:08:25.786Z,37.90
2017-08-26T16:10:53.307Z,38.20
2017-08-26T16:13:20.831Z,38.50
2017-08-26T16:15:48.520Z,38.80
2017-08-26T16:18:16.061Z,38.90
2017-08-26T16:20:43.564Z,39.00
2017-08-26T16:23:11.061Z,38.90
2017-08-26T16:25:38.612Z,38.80
2017-08-26T16:28:06.102Z,38.60
2017-08-26T16:30:33.593Z,38.30
2017-08-26T16:33:01.118Z,37.60
2017-08-26T16:35:28.617Z,36.70
2017-08-26T16:37:56.144Z,35.50
2017-08-26T16:40:23.688Z,34.20
2017-08-26T16:42:51.180Z,33.30
2017-08-26T16:45:18.678Z,32.50
2017-08-26T16:47:46.252Z,31.80
2017-08-26T16:50:13.744Z,31.00
2017-08-26T16:52:41.240Z,30.20
2017-08-26T16:55:08.768Z,29.50
2017-08-26T16:57:36.259Z,28.90
2017-08-26T17:00:03.801Z,28.40
2017-08-26T17:02:31.293Z,28.00
2017-08-26T17:04:58.813Z,27.60
2017-08-26T17:07:26.349Z,27.30
2017-08-26T17:09:53.843Z,27.00
2017-08-26T17:12:21.382Z,26.70
2017-08-26T17:14:48.879Z,26.50
2017-08-26T17:17:16.427Z,26.20
2017-08-26T17:19:43.916Z,26.00
2017-08-26T17:22:11.413Z,25.80
2017-08-26T17:24:39.023Z,25.60
2017-08-26T17:27:07.206Z,25.50
2017-08-26T17:29:34.992Z,25.30
2017-08-26T17:32:05.579Z,25.20
2017-08-26T17:34:33.462Z,25.10
2017-08-26T17:37:00.994Z,24.90
2017-08-26T17:39:28.511Z,24.80
2017-08-26T17:41:56.008Z,24.70
2017-08-26T17:44:23.558Z,24.50
2017-08-26T17:46:51.051Z,24.40
2017-08-26T17:49:18.539Z,24.30
2017-08-26T17:51:46.063Z,24.20
2017-08-26T17:54:13.588Z,24.10
2017-08-26T17:56:41.078Z,23.90
2017-08-26T17:59:08.627Z,23.80
2017-08-26T18:01:36.119Z,23.70
2017-08-26T18:04:03.608Z,23.60
2017-08-26T18:06:31.336Z,23.50
2017-08-26T18:08:58.824Z,23.30
2017-08-26T18:11:26.345Z,23.20
2017-08-26T18:13:53.867Z,23.10
2017-08-26T18:16:21.356Z,22.90
2017-08-26T18:18:48.868Z,22.90
2017-08-26T18:21:16.389Z,22.70
2017-08-26T18:23:43.929Z,22.70
2017-08-26T18:26:11.428Z,22.50
2017-08-26T18:28:38.916Z,22.50
2017-08-26T18:31:06.456Z,22.40
2017-08-26T18:33:33.947Z,22.30
2017-08-26T18:36:01.439Z,22.20
2017-08-26T18:38:28.959Z,22.20
2017-08-26T18:40:56.459Z,22.00
2017-08-26T18:43:23.969Z,21.90
2017-08-26T18:45:51.507Z,21.80
2017-08-26T18:48:19.000Z,21.80
2017-08-26T18:50:46.492Z,21.70
2017-08-26T18:53:14.004Z,21.60
2017-08-26T18:55:42.919Z,21.60
2017-08-26T18:58:10.532Z,21.50
2017-08-26T19:00:38.016Z,21.40
2017-08-26T19:03:05.549Z,21.40
2017-08-26T19:05:33.034Z,21.30
2017-08-26T19:08:00.566Z,21.30
2017-08-26T19:10:28.202Z,21.20
2017-08-26T19:12:55.860Z,21.20
2017-08-26T19:15:23.398Z,21.10
2017-08-26T19:17:50.884Z,21.00
2017-08-26T19:20:18.388Z,21.00
2017-08-26T19:22:45.908Z,21.00
2017-08-26T19:25:13.968Z,20.90
2017-08-26T19:27:41.507Z,20.90
2017-08-26T19:30:10.281Z,20.90
2017-08-26T19:32:38.583Z,20.80
2017-08-26T19:35:07.489Z,20.70
2017-08-26T19:37:35.125Z,20.70
2017-08-26T19:40:04.342Z,20.70
2017-08-26T19:42:31.905Z,20.60
2017-08-26T19:44:59.916Z,20.60
2017-08-26T19:47:28.098Z,20.60
2017-08-26T19:49:56.135Z,20.50
2017-08-26T19:52:26.672Z,20.50
2017-08-26T19:55:00.869Z,20.50
2017-08-26T19:57:31.994Z,20.50
2017-08-26T20:00:09.254Z,20.40
2017-08-26T20:02:39.484Z,20.40
2017-08-26T20:05:08.091Z,20.40
2017-08-26T20:07:35.580Z,20.40
2017-08-26T20:10:03.069Z,20.40
2017-08-26T20:12:30.675Z,20.40
2017-08-26T20:14:58.181Z,20.40
2017-08-26T20:17:25.764Z,20.40
2017-08-26T20:19:53.296Z,20.40
2017-08-26T20:22:20.781Z,20.30
2017-08-26T20:24:48.272Z,20.30
2017-08-26T20:27:15.804Z,20.30
2017-08-26T20:29:43.299Z,20.20
2017-08-26T20:32:10.804Z,20.20
2017-08-26T20:34:38.319Z,20.10
2017-08-26T20:37:05.824Z,20.10
2017-08-26T20:39:33.364Z,20.10
2017-08-26T20:42:00.852Z,20.00
2017-08-26T20:44:28.343Z,19.90
2017-08-26T20:46:55.859Z,19.90
2017-08-26T20:49:23.371Z,19.90
2017-08-26T20:51:51.506Z,19.80
2017-08-26T20:54:19.056Z,19.80
2017-08-26T20:56:46.543Z,19.70
2017-08-26T20:59:14.032Z,19.70
2017-08-26T21:01:41.892Z,19.70
2017-08-26T21:04:09.376Z,19.60
2017-08-26T21:06:37.096Z,19.60
2017-08-26T21:09:04.586Z,19.60
2017-08-26T21:11:32.080Z,19.50
2017-08-26T21:13:59.621Z,19.50
2017-08-26T21:16:27.104Z,19.40
2017-08-26T21:18:54.652Z,19.40
2017-08-26T21:21:22.148Z,19.40
2017-08-26T21:23:49.974Z,19.30
2017-08-26T21:26:17.560Z,19.30
2017-08-26T21:28:47.848Z,19.30
2017-08-26T21:31:15.393Z,19.30
2017-08-26T21:33:42.879Z,19.20
2017-08-26T21:36:10.371Z,19.20
2017-08-26T21:38:37.894Z,19.20
2017-08-26T21:41:05.423Z,19.20
2017-08-26T21:43:32.912Z,19.20
2017-08-26T21:46:00.400Z,19.10
2017-08-26T21:48:27.936Z,19.10
2017-08-26T21:50:55.427Z,19.10
2017-08-26T21:53:22.915Z,19.10
2017-08-26T21:55:50.543Z,19.10
2017-08-26T21:58:18.140Z,19.10
2017-08-26T22:00:45.625Z,19.00
2017-08-26T22:03:13.115Z,19.00
2017-08-26T22:05:40.655Z,19.00
2017-08-26T22:08:08.152Z,19.00
2017-08-26T22:10:35.636Z,19.00
2017-08-26T22:13:03.231Z,18.90
2017-08-26T22:15:30.817Z,18.90
2017-08-26T22:17:58.311Z,18.90
2017-08-26T22:20:25.854Z,18.80
2017-08-26T22:22:53.340Z,18.80
2017-08-26T22:25:20.835Z,18.80
2017-08-26T22:27:48.355Z,18.80
2017-08-26T22:30:15.848Z,18.80
2017-08-26T22:32:43.454Z,18.70
2017-08-26T22:35:10.948Z,18.70
2017-08-26T22:37:38.438Z,18.70
2017-08-26T22:40:05.989Z,18.70
2017-08-26T22:42:33.479Z,18.70
2017-08-26T22:45:00.964Z,18.70
2017-08-26T22:47:28.590Z,18.70
2017-08-26T22:49:56.169Z,18.60
2017-08-26T22:52:23.660Z,18.60
2017-08-26T22:54:51.160Z,18.60
2017-08-26T22:57:18.649Z,18.60
2017-08-26T22:59:46.208Z,18.60
2017-08-26T23:02:13.691Z,18.50
2017-08-26T23:04:41.181Z,18.50
2017-08-26T23:07:08.749Z,18.50
2017-08-26T23:09:36.239Z,18.40
2017-08-26T23:12:03.727Z,18.40
2017-08-26T23:14:31.255Z,18.40
2017-08-26T23:16:59.620Z,18.40
2017-08-26T23:19:27.185Z,18.40
2017-08-26T23:21:55.005Z,18.40
2017-08-26T23:24:22.493Z,18.30
2017-08-26T23:26:50.050Z,18.30
2017-08-26T23:29:17.636Z,18.30
2017-08-26T23:31:45.126Z,18.30
2017-08-26T23:34:12.624Z,18.30
2017-08-26T23:36:40.152Z,18.30
2017-08-26T23:39:07.645Z,18.30
2017-08-26T23:41:35.166Z,18.30
2017-08-26T23:44:02.655Z,18.20
2017-08-26T23:46:30.191Z,18.20
2017-08-26T23:48:57.680Z,18.20
2017-08-26T23:51:25.371Z,18.20
2017-08-26T23:53:52.975Z,18.20
2017-08-26T23:56:20.503Z,18.20
2017-08-26T23:58:47.988Z,18.10
